createdAt,value
2023-06-16T00:00:37.491Z,101516.38
2023-06-16T00:03:04.230Z,101515.22
2023-06-16T00:05:31.238Z,101504.47
2023-06-16T00:08:02.034Z,101511.19
2023-06-16T00:10:28.969Z,101494.59
2023-06-16T00:12:55.510Z,101498.13
2023-06-16T00:15:22.119Z,101504.88
2023-06-16T00:17:51.088Z,101496.50
2023-06-16T00:20:22.512Z,101494.75
2023-06-16T00:22:49.610Z,101488.09
2023-06-16T00:25:17.856Z,101494.66
2023-06-16T00:27:44.514Z,101493.63
2023-06-16T00:30:11.542Z,101501.25
2023-06-16T00:32:38.187Z,101504.69
2023-06-16T00:35:05.039Z,101498.53
2023-06-16T00:37:31.551Z,101488.84
2023-06-16T00:39:58.064Z,101480.81
2023-06-16T00:42:24.595Z,101475.41
2023-06-16T00:44:51.088Z,101476.19
2023-06-16T00:47:17.768Z,101483.91
2023-06-16T00:49:44.438Z,101476.78
2023-06-16T00:52:14.292Z,101471.88
2023-06-16T00:54:40.915Z,101478.72
2023-06-16T00:57:08.013Z,101475.59
2023-06-16T00:59:34.841Z,101477.00
2023-06-16T01:02:01.887Z,101478.44
2023-06-16T01:04:29.456Z,101478.81
2023-06-16T01:07:00.524Z,101466.50
2023-06-16T01:09:54.351Z,101464.75
2023-06-16T01:12:39.562Z,101453.22
2023-06-16T01:15:10.375Z,101453.03
2023-06-16T01:17:44.857Z,101450.22
2023-06-16T01:20:16.198Z,101444.75
2023-06-16T01:23:07.704Z,101438.56
2023-06-16T01:25:39.442Z,101450.59
2023-06-16T01:28:08.909Z,101441.94
2023-06-16T01:30:36.411Z,101439.28
2023-06-16T01:33:03.839Z,101434.75
2023-06-16T01:35:31.344Z,101426.91
2023-06-16T01:37:58.369Z,101425.97
2023-06-16T01:40:25.468Z,101432.88
2023-06-16T01:42:52.883Z,101434.19
2023-06-16T01:45:20.170Z,101442.03
2023-06-16T01:47:47.064Z,101437.34
2023-06-16T01:50:14.200Z,101436.09
2023-06-16T01:52:40.837Z,101438.63
2023-06-16T01:55:08.016Z,101440.47
2023-06-16T01:57:35.585Z,101432.31
2023-06-16T02:00:18.539Z,101430.63
2023-06-16T02:02:55.549Z,101427.22
2023-06-16T02:05:25.050Z,101417.22
2023-06-16T02:07:53.875Z,101432.00
2023-06-16T02:10:22.201Z,101425.00
2023-06-16T02:12:49.670Z,101430.72
2023-06-16T02:15:20.234Z,101430.78
2023-06-16T02:17:47.349Z,101437.28
2023-06-16T02:20:13.912Z,101441.69
2023-06-16T02:22:40.688Z,101438.00
2023-06-16T02:25:07.716Z,101436.53
2023-06-16T02:27:34.278Z,101431.47
2023-06-16T02:30:00.879Z,101434.28
2023-06-16T02:32:28.122Z,101423.75
2023-06-16T02:34:57.259Z,101426.56
2023-06-16T02:37:26.561Z,101434.41
2023-06-16T02:39:53.081Z,101426.53
2023-06-16T02:42:19.600Z,101432.66
2023-06-16T02:44:46.151Z,101430.06
2023-06-16T02:47:12.709Z,101437.19
2023-06-16T02:49:43.926Z,101440.66
2023-06-16T02:52:13.657Z,101437.16
2023-06-16T02:54:41.460Z,101433.53
2023-06-16T02:57:08.638Z,101443.00
2023-06-16T02:59:35.874Z,101437.81
2023-06-16T03:02:02.574Z,101436.06
2023-06-16T03:04:29.180Z,101433.50
2023-06-16T03:06:58.993Z,101434.38
2023-06-16T03:09:26.458Z,101429.97
2023-06-16T03:11:55.525Z,101431.63
2023-06-16T03:14:22.679Z,101428.09
2023-06-16T03:16:49.578Z,101436.78
2023-06-16T03:19:16.864Z,101437.72
2023-06-16T03:21:44.157Z,101442.03
2023-06-16T03:24:11.001Z,101440.44
2023-06-16T03:26:38.497Z,101433.53
2023-06-16T03:29:06.675Z,101438.88
2023-06-16T03:31:33.183Z,101437.09
2023-06-16T03:34:07.392Z,101437.25
2023-06-16T03:36:42.114Z,101435.44
2023-06-16T03:39:08.683Z,101424.88
2023-06-16T03:41:35.787Z,101430.09
2023-06-16T03:44:05.005Z,101421.41
2023-06-16T03:46:34.411Z,101428.50
2023-06-16T03:49:01.193Z,101424.13
2023-06-16T03:51:27.732Z,101437.31
2023-06-16T03:53:54.258Z,101436.31
2023-06-16T03:56:21.060Z,101451.34
2023-06-16T03:58:49.672Z,101442.53
2023-06-16T04:01:17.118Z,101443.38
2023-06-16T04:03:43.735Z,101439.03
2023-06-16T04:06:10.560Z,101435.50
2023-06-16T04:08:37.780Z,101432.81
2023-06-16T04:11:04.532Z,101440.78
2023-06-16T04:13:31.968Z,101438.16
2023-06-16T04:15:58.489Z,101435.44
2023-06-16T04:18:25.236Z,101429.19
2023-06-16T04:20:52.118Z,101426.53
2023-06-16T04:23:18.962Z,101427.38
2023-06-16T04:25:46.112Z,101421.22
2023-06-16T04:28:15.385Z,101430.00
2023-06-16T04:30:43.288Z,101422.94
2023-06-16T04:33:09.893Z,101424.59
2023-06-16T04:35:36.685Z,101414.16
2023-06-16T04:38:04.233Z,101413.16
2023-06-16T04:40:33.644Z,101417.53
2023-06-16T04:43:00.156Z,101413.94
2023-06-16T04:45:27.149Z,101408.53
2023-06-16T04:47:53.774Z,101403.50
2023-06-16T04:50:20.818Z,101400.69
2023-06-16T04:52:51.140Z,101405.97
2023-06-16T04:55:18.117Z,101404.09
2023-06-16T04:57:45.102Z,101404.16
2023-06-16T05:00:12.122Z,101402.59
2023-06-16T05:02:38.922Z,101409.56
2023-06-16T05:05:06.042Z,101409.44
2023-06-16T05:07:32.811Z,101404.97
2023-06-16T05:09:59.590Z,101403.31
2023-06-16T05:12:27.225Z,101405.66
2023-06-16T05:14:53.810Z,101401.25
2023-06-16T05:17:20.756Z,101398.03
2023-06-16T05:19:47.320Z,101396.31
2023-06-16T05:22:14.516Z,101391.78
2023-06-16T05:24:41.132Z,101385.47
2023-06-16T05:27:07.748Z,101383.66
2023-06-16T05:29:34.247Z,101375.81
2023-06-16T05:32:00.823Z,101378.53
2023-06-16T05:34:27.409Z,101374.91
2023-06-16T05:36:53.918Z,101373.97
2023-06-16T05:39:20.686Z,101364.44
2023-06-16T05:41:50.289Z,101362.38
2023-06-16T05:44:16.779Z,101361.53
2023-06-16T05:46:43.299Z,101357.78
2023-06-16T05:49:09.840Z,101357.34
2023-06-16T05:51:36.539Z,101355.38
2023-06-16T05:54:03.098Z,101351.69
2023-06-16T05:56:29.686Z,101345.91
2023-06-16T05:58:56.400Z,101345.66
2023-06-16T06:01:22.945Z,101344.28
2023-06-16T06:03:49.744Z,101351.81
2023-06-16T06:06:16.601Z,101362.47
2023-06-16T06:08:43.138Z,101369.50
2023-06-16T06:11:09.649Z,101366.94
2023-06-16T06:13:36.195Z,101372.06
2023-06-16T06:16:03.335Z,101368.03
2023-06-16T06:18:30.093Z,101358.19
2023-06-16T06:20:56.660Z,101358.50
2023-06-16T06:23:23.239Z,101352.22
2023-06-16T06:25:49.997Z,101357.13
2023-06-16T06:28:16.651Z,101351.50
2023-06-16T06:30:43.195Z,101352.06
2023-06-16T06:33:09.798Z,101357.59
2023-06-16T06:35:36.600Z,101358.47
2023-06-16T06:38:04.356Z,101362.88
2023-06-16T06:40:33.156Z,101369.22
2023-06-16T06:43:03.962Z,101384.13
2023-06-16T06:45:30.568Z,101383.78
2023-06-16T06:47:57.284Z,101385.06
2023-06-16T06:50:23.894Z,101404.97
2023-06-16T06:52:50.642Z,101414.63
2023-06-16T06:55:17.288Z,101424.56
2023-06-16T06:57:43.845Z,101432.56
2023-06-16T07:00:11.365Z,101435.22
2023-06-16T07:02:38.094Z,101424.50
2023-06-16T07:05:05.045Z,101419.63
2023-06-16T07:07:31.610Z,101426.19
2023-06-16T07:09:58.101Z,101412.72
2023-06-16T07:12:24.614Z,101404.91
2023-06-16T07:14:51.119Z,101410.09
2023-06-16T07:17:17.676Z,101403.53
2023-06-16T07:19:44.312Z,101401.78
2023-06-16T07:22:11.116Z,101413.31
2023-06-16T07:24:37.687Z,101408.31
2023-06-16T07:27:04.705Z,101411.13
2023-06-16T07:29:31.389Z,101418.31
2023-06-16T07:31:58.036Z,101420.69
2023-06-16T07:34:24.750Z,101418.72
2023-06-16T07:36:51.395Z,101418.56
2023-06-16T07:39:18.516Z,101424.84
2023-06-16T07:41:45.268Z,101425.22
2023-06-16T07:44:12.386Z,101427.69
2023-06-16T07:46:39.791Z,101418.97
2023-06-16T07:49:06.521Z,101421.34
2023-06-16T07:51:33.060Z,101433.72
2023-06-16T07:53:59.715Z,101419.75
2023-06-16T07:56:26.263Z,101427.59
2023-06-16T07:58:52.769Z,101416.56
2023-06-16T08:01:19.303Z,101406.53
2023-06-16T08:03:48.192Z,101407.81
2023-06-16T08:06:16.580Z,101408.53
2023-06-16T08:08:43.257Z,101388.75
2023-06-16T08:11:09.855Z,101386.94
2023-06-16T08:13:36.428Z,101386.63
2023-06-16T08:16:03.139Z,101377.28
2023-06-16T08:18:29.737Z,101380.78
2023-06-16T08:20:56.313Z,101367.38
2023-06-16T08:23:22.861Z,101358.75
2023-06-16T08:25:50.653Z,101360.72
2023-06-16T08:28:17.216Z,101353.00
2023-06-16T08:30:43.799Z,101349.25
2023-06-16T08:33:11.074Z,101348.41
2023-06-16T08:35:37.663Z,101351.13
2023-06-16T08:38:04.275Z,101346.88
2023-06-16T08:40:31.773Z,101362.09
2023-06-16T08:42:59.469Z,101353.44
2023-06-16T08:45:26.940Z,101357.97
2023-06-16T08:47:53.503Z,101356.88
2023-06-16T08:50:24.035Z,101351.75
2023-06-16T08:52:54.205Z,101347.84
2023-06-16T08:55:21.552Z,101341.84
2023-06-16T08:57:49.648Z,101347.16
2023-06-16T09:00:17.369Z,101338.81
2023-06-16T09:02:45.362Z,101337.13
2023-06-16T09:05:13.093Z,101331.03
2023-06-16T09:07:40.758Z,101322.00
2023-06-16T09:10:08.892Z,101311.59
2023-06-16T09:12:36.422Z,101308.41
2023-06-16T09:15:07.768Z,101323.47
2023-06-16T09:17:34.833Z,101312.16
2023-06-16T09:20:03.001Z,101317.25
2023-06-16T09:22:30.209Z,101334.59
2023-06-16T09:24:58.163Z,101341.09
2023-06-16T09:27:42.413Z,101334.88
2023-06-16T09:30:10.014Z,101333.38
2023-06-16T09:32:40.387Z,101338.56
2023-06-16T09:35:24.313Z,101346.31
2023-06-16T09:37:56.499Z,101339.81
2023-06-16T09:40:27.098Z,101335.50
2023-06-16T09:42:53.674Z,101342.50
2023-06-16T09:45:23.035Z,101338.88
2023-06-16T09:47:50.467Z,101333.63
2023-06-16T09:50:18.698Z,101332.78
2023-06-16T09:52:47.732Z,101329.50
2023-06-16T09:55:14.650Z,101324.41
2023-06-16T09:57:46.453Z,101326.84
2023-06-16T10:00:18.591Z,101324.13
2023-06-16T10:02:47.353Z,101322.44
2023-06-16T10:05:17.230Z,101319.06
2023-06-16T10:07:45.982Z,101312.06
2023-06-16T10:10:12.930Z,101313.94
2023-06-16T10:12:50.703Z,101302.88
2023-06-16T10:15:21.648Z,101304.75
2023-06-16T10:17:48.780Z,101299.75
2023-06-16T10:20:17.498Z,101318.09
2023-06-16T10:22:44.687Z,101305.41
2023-06-16T10:25:11.727Z,101315.47
2023-06-16T10:27:40.736Z,101316.91
2023-06-16T10:30:10.454Z,101328.00
2023-06-16T10:32:38.646Z,101337.22
2023-06-16T10:35:08.646Z,101320.91
2023-06-16T10:37:35.184Z,101316.16
2023-06-16T10:40:14.117Z,101321.94
2023-06-16T10:42:41.495Z,101315.59
2023-06-16T10:45:28.442Z,101311.31
2023-06-16T10:47:57.231Z,101304.03
2023-06-16T10:50:40.067Z,101309.41
2023-06-16T10:53:19.688Z,101309.69
2023-06-16T10:55:46.759Z,101299.56
2023-06-16T10:58:22.401Z,101302.31
2023-06-16T11:01:06.808Z,101289.78
2023-06-16T11:03:38.844Z,101289.91
2023-06-16T11:06:06.720Z,101301.25
2023-06-16T11:08:49.288Z,101291.69
2023-06-16T11:11:16.830Z,101299.69
2023-06-16T11:13:43.545Z,101298.25
2023-06-16T11:16:10.130Z,101286.66
2023-06-16T11:18:36.906Z,101294.69
2023-06-16T11:21:06.259Z,101290.59
2023-06-16T11:23:33.248Z,101299.56
2023-06-16T11:26:27.775Z,101295.88
2023-06-16T11:28:54.284Z,101287.38
2023-06-16T11:31:22.231Z,101295.56
2023-06-16T11:33:48.987Z,101285.81
2023-06-16T11:36:20.940Z,101285.59
2023-06-16T11:38:49.628Z,101287.19
2023-06-16T11:41:24.196Z,101288.00
2023-06-16T11:43:52.284Z,101292.16
2023-06-16T11:46:29.894Z,101290.44
2023-06-16T11:48:56.578Z,101286.69
2023-06-16T11:51:24.565Z,101287.03
2023-06-16T11:53:52.093Z,101272.56
2023-06-16T11:56:18.740Z,101273.13
2023-06-16T11:58:46.998Z,101270.72
2023-06-16T12:01:16.984Z,101272.91
2023-06-16T12:04:03.602Z,101279.00
2023-06-16T12:06:33.198Z,101270.22
2023-06-16T12:09:00.970Z,101273.63
2023-06-16T12:11:29.675Z,101263.59
2023-06-16T12:13:58.231Z,101266.97
2023-06-16T12:16:25.211Z,101280.34
2023-06-16T12:18:52.537Z,101267.69
2023-06-16T12:21:29.003Z,101264.63
2023-06-16T12:23:58.427Z,101273.84
2023-06-16T12:26:36.581Z,101274.78
2023-06-16T12:29:09.633Z,101269.25
2023-06-16T12:31:36.473Z,101270.41
2023-06-16T12:34:03.327Z,101267.50
2023-06-16T12:36:29.930Z,101267.22
2023-06-16T12:38:57.381Z,101266.44
2023-06-16T12:41:27.418Z,101264.28
2023-06-16T12:43:54.015Z,101267.94
2023-06-16T12:46:21.667Z,101263.06
2023-06-16T12:48:48.252Z,101268.88
2023-06-16T12:51:15.160Z,101265.00
2023-06-16T12:53:46.959Z,101272.91
2023-06-16T12:56:15.737Z,101274.56
2023-06-16T12:58:42.280Z,101272.88
2023-06-16T13:01:11.813Z,101265.44
2023-06-16T13:03:42.279Z,101270.31
2023-06-16T13:06:08.937Z,101275.78
2023-06-16T13:08:35.762Z,101274.59
2023-06-16T13:11:02.316Z,101267.78
2023-06-16T13:13:28.829Z,101266.97
2023-06-16T13:15:55.915Z,101257.59
2023-06-16T13:18:22.514Z,101262.81
2023-06-16T13:20:49.623Z,101260.66
2023-06-16T13:23:16.160Z,101257.00
2023-06-16T13:25:42.711Z,101258.69
2023-06-16T13:28:09.320Z,101259.53
2023-06-16T13:30:36.286Z,101256.41
2023-06-16T13:33:02.906Z,101262.44
2023-06-16T13:35:29.453Z,101260.78
2023-06-16T13:37:56.283Z,101255.75
2023-06-16T13:40:22.999Z,101252.63
2023-06-16T13:42:49.598Z,101259.38
2023-06-16T13:45:16.111Z,101257.16
2023-06-16T13:47:42.702Z,101261.59
2023-06-16T13:50:09.943Z,101251.69
2023-06-16T13:52:37.702Z,101241.94
2023-06-16T13:55:04.872Z,101251.38
2023-06-16T13:57:31.500Z,101259.94
2023-06-16T14:00:00.108Z,101258.63
2023-06-16T14:02:27.041Z,101261.56
2023-06-16T14:04:53.741Z,101249.28
2023-06-16T14:07:20.442Z,101254.00
2023-06-16T14:09:47.086Z,101257.03
2023-06-16T14:12:13.649Z,101240.16
2023-06-16T14:14:40.334Z,101242.44
2023-06-16T14:17:06.955Z,101246.59
2023-06-16T14:19:35.613Z,101250.63
2023-06-16T14:22:02.440Z,101252.13
2023-06-16T14:24:30.278Z,101250.63
2023-06-16T14:26:56.870Z,101248.00
2023-06-16T14:29:23.346Z,101239.31
2023-06-16T14:31:49.860Z,101226.66
2023-06-16T14:34:16.374Z,101223.22
2023-06-16T14:36:42.944Z,101219.41
2023-06-16T14:39:10.437Z,101215.44
2023-06-16T14:41:38.250Z,101205.00
2023-06-16T14:44:04.971Z,101198.34
2023-06-16T14:46:31.633Z,101187.16
2023-06-16T14:48:58.165Z,101184.59
2023-06-16T14:51:24.675Z,101197.72
2023-06-16T14:53:51.170Z,101196.22
2023-06-16T14:56:18.754Z,101193.38
2023-06-16T14:58:45.296Z,101190.44
2023-06-16T15:01:11.824Z,101194.69
2023-06-16T15:03:38.497Z,101192.72
2023-06-16T15:06:05.160Z,101195.34
2023-06-16T15:08:31.747Z,101190.69
2023-06-16T15:10:58.284Z,101198.03
2023-06-16T15:13:24.930Z,101197.94
2023-06-16T15:15:51.523Z,101184.47
2023-06-16T15:18:18.154Z,101198.53
2023-06-16T15:20:44.706Z,101204.69
2023-06-16T15:23:11.465Z,101206.38
2023-06-16T15:25:38.030Z,101199.97
2023-06-16T15:28:12.256Z,101207.03
2023-06-16T15:30:39.157Z,101198.00
2023-06-16T15:33:06.022Z,101199.59
2023-06-16T15:35:32.635Z,101192.19
2023-06-16T15:37:59.150Z,101188.44
2023-06-16T15:40:25.888Z,101195.22
2023-06-16T15:43:07.638Z,101193.06
2023-06-16T15:45:34.212Z,101183.09
2023-06-16T15:48:01.032Z,101191.44
2023-06-16T15:50:28.400Z,101190.25
2023-06-16T15:52:55.029Z,101184.31
2023-06-16T15:55:21.892Z,101188.69
2023-06-16T15:57:48.389Z,101192.47
2023-06-16T16:00:15.263Z,101191.13
2023-06-16T16:02:41.947Z,101184.72
2023-06-16T16:05:08.588Z,101179.16
2023-06-16T16:07:35.174Z,101178.03
2023-06-16T16:10:02.148Z,101177.97
2023-06-16T16:12:29.955Z,101179.16
2023-06-16T16:14:57.548Z,101186.47
2023-06-16T16:17:26.239Z,101185.34
2023-06-16T16:19:52.773Z,101177.09
2023-06-16T16:22:19.300Z,101178.53
2023-06-16T16:24:46.648Z,101186.41
2023-06-16T16:27:13.362Z,101183.91
2023-06-16T16:29:39.894Z,101190.13
2023-06-16T16:32:07.855Z,101173.81
2023-06-16T16:34:34.583Z,101181.56
2023-06-16T16:37:02.059Z,101182.31
2023-06-16T16:39:29.201Z,101177.53
2023-06-16T16:41:56.656Z,101176.91
2023-06-16T16:44:25.175Z,101176.56
2023-06-16T16:46:52.525Z,101180.19
2023-06-16T16:49:19.449Z,101185.50
2023-06-16T16:51:46.052Z,101182.25
2023-06-16T16:54:12.600Z,101184.00
2023-06-16T16:56:39.079Z,101181.03
2023-06-16T16:59:05.637Z,101192.16
2023-06-16T17:01:32.272Z,101200.72
2023-06-16T17:03:58.786Z,101205.03
2023-06-16T17:06:25.408Z,101203.59
2023-06-16T17:08:51.928Z,101206.50
2023-06-16T17:11:18.458Z,101187.91
2023-06-16T17:13:44.969Z,101199.38
2023-06-16T17:16:13.827Z,101202.25
2023-06-16T17:18:40.414Z,101194.59
2023-06-16T17:21:06.917Z,101202.31
2023-06-16T17:23:34.139Z,101208.22
2023-06-16T17:26:01.886Z,101200.88
2023-06-16T17:28:28.512Z,101201.88
2023-06-16T17:30:55.105Z,101206.66
2023-06-16T17:33:22.099Z,101203.19
2023-06-16T17:35:48.996Z,101206.97
2023-06-16T17:38:15.669Z,101203.50
2023-06-16T17:40:42.191Z,101207.34
2023-06-16T17:43:08.710Z,101203.47
2023-06-16T17:45:35.193Z,101209.19
2023-06-16T17:48:02.118Z,101213.47
2023-06-16T17:50:29.387Z,101230.97
2023-06-16T17:52:56.825Z,101241.53
2023-06-16T17:55:23.462Z,101225.06
2023-06-16T17:57:50.007Z,101226.41
2023-06-16T18:00:17.200Z,101232.63
2023-06-16T18:02:44.243Z,101233.13
2023-06-16T18:05:11.164Z,101230.72
2023-06-16T18:07:39.169Z,101225.50
2023-06-16T18:10:07.125Z,101220.69
2023-06-16T18:12:33.711Z,101229.38
2023-06-16T18:15:00.278Z,101220.94
2023-06-16T18:17:27.097Z,101220.22
2023-06-16T18:19:53.676Z,101219.59
2023-06-16T18:22:20.532Z,101218.31
2023-06-16T18:24:47.056Z,101208.78
2023-06-16T18:27:13.653Z,101213.56
2023-06-16T18:29:40.739Z,101219.41
2023-06-16T18:32:08.391Z,101211.75
2023-06-16T18:34:35.107Z,101204.50
2023-06-16T18:37:01.734Z,101204.69
2023-06-16T18:39:31.112Z,101207.81
2023-06-16T18:41:57.608Z,101210.66
2023-06-16T18:44:24.141Z,101199.56
2023-06-16T18:46:50.742Z,101206.50
2023-06-16T18:49:17.264Z,101199.50
2023-06-16T18:51:43.878Z,101200.09
2023-06-16T18:54:10.540Z,101200.28
2023-06-16T18:56:37.486Z,101203.59
2023-06-16T18:59:04.441Z,101199.06
2023-06-16T19:01:31.015Z,101213.44
2023-06-16T19:03:57.795Z,101213.19
2023-06-16T19:06:25.632Z,101211.81
2023-06-16T19:08:53.022Z,101221.41
2023-06-16T19:11:23.098Z,101220.78
2023-06-16T19:13:49.793Z,101218.16
2023-06-16T19:16:19.360Z,101221.53
2023-06-16T19:18:46.700Z,101222.06
2023-06-16T19:21:14.394Z,101224.91
2023-06-16T19:23:41.261Z,101222.31
2023-06-16T19:26:08.010Z,101213.38
2023-06-16T19:28:55.849Z,101225.81
2023-06-16T19:31:26.894Z,101219.78
2023-06-16T19:33:54.029Z,101222.94
2023-06-16T19:36:20.688Z,101220.31
2023-06-16T19:38:47.407Z,101223.59
2023-06-16T19:41:14.155Z,101221.59
2023-06-16T19:43:41.665Z,101221.66
2023-06-16T19:46:08.414Z,101221.31
2023-06-16T19:48:35.033Z,101217.69
2023-06-16T19:51:01.846Z,101213.47
2023-06-16T19:53:28.998Z,101225.56
2023-06-16T19:55:58.198Z,101222.69
2023-06-16T19:58:24.834Z,101221.97
2023-06-16T20:00:53.641Z,101222.97
2023-06-16T20:03:20.566Z,101222.69
2023-06-16T20:05:47.144Z,101227.00
2023-06-16T20:08:14.583Z,101218.19
2023-06-16T20:10:43.659Z,101226.84
2023-06-16T20:13:12.413Z,101228.91
2023-06-16T20:15:39.210Z,101229.66
2023-06-16T20:18:05.866Z,101225.09
2023-06-16T20:20:33.594Z,101223.09
2023-06-16T20:23:01.629Z,101219.91
2023-06-16T20:25:29.138Z,101216.81
2023-06-16T20:27:55.730Z,101222.56
2023-06-16T20:30:22.524Z,101212.97
2023-06-16T20:32:50.718Z,101209.53
2023-06-16T20:35:18.741Z,101226.03
2023-06-16T20:37:50.564Z,101216.63
2023-06-16T20:40:17.524Z,101210.78
2023-06-16T20:42:47.680Z,101204.63
2023-06-16T20:45:19.219Z,101201.91
2023-06-16T20:47:50.788Z,101211.88
2023-06-16T20:50:22.502Z,101211.19
2023-06-16T20:52:51.465Z,101208.88
2023-06-16T20:55:18.918Z,101232.19
2023-06-16T20:57:46.004Z,101230.00
2023-06-16T21:00:13.735Z,101230.78
2023-06-16T21:02:40.660Z,101223.63
2023-06-16T21:05:11.117Z,101222.00
2023-06-16T21:07:45.203Z,101224.22
2023-06-16T21:10:16.732Z,101224.47
2023-06-16T21:12:43.691Z,101227.84
2023-06-16T21:15:12.280Z,101222.59
2023-06-16T21:17:41.990Z,101224.72
2023-06-16T21:20:10.498Z,101226.31
2023-06-16T21:22:37.950Z,101224.53
2023-06-16T21:29:00.917Z,101216.00
2023-06-16T21:31:27.438Z,101219.47
2023-06-16T21:33:53.949Z,101212.63
2023-06-16T21:36:20.551Z,101218.47
2023-06-16T21:38:54.526Z,101216.72
2023-06-16T21:41:21.192Z,101225.84
2023-06-16T21:43:47.708Z,101222.69
2023-06-16T21:46:14.326Z,101223.28
2023-06-16T21:48:42.233Z,101220.97
2023-06-16T21:51:09.037Z,101227.97
2023-06-16T21:53:37.122Z,101235.91
2023-06-16T21:56:03.911Z,101231.72
2023-06-16T21:58:30.511Z,101233.13
2023-06-16T22:00:57.028Z,101226.91
2023-06-16T22:03:23.644Z,101223.63
2023-06-16T22:05:50.437Z,101229.66
2023-06-16T22:08:17.068Z,101224.47
2023-06-16T22:10:43.748Z,101227.19
2023-06-16T22:13:10.370Z,101218.53
2023-06-16T22:15:36.913Z,101227.03
2023-06-16T22:18:04.650Z,101220.03
2023-06-16T22:20:31.307Z,101223.59
2023-06-16T22:22:59.734Z,101223.81
2023-06-16T22:25:26.612Z,101232.69
2023-06-16T22:27:53.333Z,101234.28
2023-06-16T22:30:22.098Z,101234.38
2023-06-16T22:32:49.762Z,101230.97
2023-06-16T22:35:16.472Z,101223.34
2023-06-16T22:37:43.001Z,101222.31
2023-06-16T22:40:11.202Z,101233.84
2023-06-16T22:42:37.745Z,101228.34
2023-06-16T22:45:04.517Z,101230.22
2023-06-16T22:47:31.107Z,101234.69
2023-06-16T22:49:57.750Z,101233.09
2023-06-16T22:52:25.280Z,101235.63
2023-06-16T22:54:51.967Z,101227.81
2023-06-16T22:57:19.325Z,101231.38
2023-06-16T22:59:45.893Z,101231.25
2023-06-16T23:02:12.420Z,101229.38
2023-06-16T23:04:38.979Z,101226.91
2023-06-16T23:07:06.288Z,101227.03
2023-06-16T23:09:33.017Z,101229.75
2023-06-16T23:11:59.572Z,101229.69
2023-06-16T23:14:26.141Z,101229.81
2023-06-16T23:16:52.723Z,101224.56
2023-06-16T23:19:19.232Z,101226.13
2023-06-16T23:21:47.044Z,101215.72
2023-06-16T23:24:13.674Z,101224.72
2023-06-16T23:26:45.842Z,101229.19
2023-06-16T23:29:17.281Z,101215.72
2023-06-16T23:31:44.130Z,101219.47
2023-06-16T23:34:10.902Z,101217.56
2023-06-16T23:36:37.540Z,101215.03
2023-06-16T23:39:04.281Z,101214.19
2023-06-16T23:41:30.990Z,101215.00
2023-06-16T23:43:58.115Z,101214.91
2023-06-16T23:46:25.149Z,101218.53
2023-06-16T23:48:51.968Z,101208.81
2023-06-16T23:51:18.502Z,101214.06
2023-06-16T23:53:45.523Z,101217.53
2023-06-16T23:56:12.015Z,101209.59
2023-06-16T23:58:38.585Z,101208.78
